Time;durP1;ratioP1;P1;durP2;ratioP2;P2;SDS_P1;SDS_P2;PMS_P1;PMS_P2;Temp;Humidity;BMP_temperature;BMP_pressure;BME280_temperature;BME280_humidity;BME280_pressure;Samples;Min_cycle;Max_cycle;Signal;HPM_P1;HPM_P2
2022/05/03 00:01:49;;;;;;;;;;;8.30;99.50;;;;;;5096236;27;37580;-55
2022/05/03 00:04:22;;;;;;;;;;;8.30;99.60;;;;;;5092764;27;38058;-55
2022/05/03 00:06:55;;;;;;;;;;;8.20;99.60;;;;;;5097013;27;36532;-55
2022/05/03 00:09:30;;;;;;;;;;;8.30;99.70;;;;;;5094825;27;36204;-56
2022/05/03 00:12:01;;;;;;;;;;;8.30;99.70;;;;;;5097042;27;37618;-55
2022/05/03 00:14:32;;;;;;;;;;;8.30;99.70;;;;;;5097139;27;36526;-55
2022/05/03 00:17:00;;;;;;;;;;;8.30;99.60;;;;;;5097668;27;36987;-55
2022/05/03 00:19:31;;;;;;;;;;;8.30;99.60;;;;;;5096266;27;37303;-56
2022/05/03 00:21:59;;;;;;;;;;;8.30;99.60;;;;;;5097056;27;37462;-56
2022/05/03 00:24:26;;;;;;;;;;;8.30;99.60;;;;;;5092216;27;37206;-55
2022/05/03 00:26:54;;;;;;;;;;;8.30;99.70;;;;;;5097602;27;37923;-55
2022/05/03 00:29:22;;;;;;;;;;;8.30;99.70;;;;;;5095539;27;35380;-55
2022/05/03 00:31:50;;;;;;;;;;;8.30;99.80;;;;;;5097610;27;37997;-55
2022/05/03 00:34:18;;;;;;;;;;;8.20;99.90;;;;;;5095571;27;37420;-55
2022/05/03 00:36:46;;;;;;;;;;;8.20;99.90;;;;;;5096324;27;35566;-55
2022/05/03 00:39:14;;;;;;;;;;;8.20;99.90;;;;;;5095710;27;36672;-55
2022/05/03 00:41:46;;;;;;;;;;;8.20;99.80;;;;;;5097686;27;38356;-55
2022/05/03 00:47:09;;;;;;;;;;;8.10;99.90;;;;;;5095713;27;37629;-55
2022/05/03 00:49:42;;;;;;;;;;;8.10;99.90;;;;;;5095641;27;36021;-54
2022/05/03 00:52:13;;;;;;;;;;;8.10;99.90;;;;;;5095112;27;39532;-56
2022/05/03 00:54:47;;;;;;;;;;;8.00;99.80;;;;;;5091371;27;37742;-55
2022/05/03 00:57:21;;;;;;;;;;;8.00;99.90;;;;;;5094389;27;37376;-55
2022/05/03 01:00:01;;;;;;;;;;;8.00;99.90;;;;;;5094806;27;35860;-56
2022/05/03 01:02:33;;;;;;;;;;;8.00;99.90;;;;;;5095638;27;38667;-54
2022/05/03 01:05:10;;;;;;;;;;;7.90;99.90;;;;;;5091344;27;37872;-55
2022/05/03 01:07:52;;;;;;;;;;;8.00;99.90;;;;;;5094121;27;35769;-55
2022/05/03 01:10:21;;;;;;;;;;;8.00;99.90;;;;;;5091612;27;36933;-54
2022/05/03 01:12:54;;;;;;;;;;;8.00;99.90;;;;;;5094397;27;36520;-55
2022/05/03 01:15:24;;;;;;;;;;;8.00;99.90;;;;;;5089347;27;38293;-54
2022/05/03 01:17:56;;;;;;;;;;;8.10;99.90;;;;;;5094742;27;36299;-53
2022/05/03 01:20:30;;;;;;;;;;;8.00;99.90;;;;;;5088708;27;36474;-55
2022/05/03 01:23:18;;;;;;;;;;;8.00;99.90;;;;;;5092006;27;39133;-54
2022/05/03 01:25:55;;;;;;;;;;;8.00;99.90;;;;;;5093768;27;37425;-55
2022/05/03 01:28:25;;;;;;;;;;;8.00;99.90;;;;;;5094337;27;36614;-55
2022/05/03 01:30:57;;;;;;;;;;;8.00;99.90;;;;;;5096165;27;36412;-55
2022/05/03 01:33:30;;;;;;;;;;;8.00;99.90;;;;;;5096617;27;37373;-55
2022/05/03 01:35:59;;;;;;;;;;;8.00;99.90;;;;;;5096642;27;38968;-55
2022/05/03 01:38:32;;;;;;;;;;;8.00;99.90;;;;;;5094919;27;38368;-54
2022/05/03 01:41:23;;;;;;;;;;;8.00;99.90;;;;;;5094027;27;38035;-55
2022/05/03 01:43:58;;;;;;;;;;;8.00;99.90;;;;;;5078082;27;37552;-55
2022/05/03 01:46:29;;;;;;;;;;;8.10;99.90;;;;;;5095786;27;36173;-55
2022/05/03 01:52:00;;;;;;;;;;;8.00;99.70;;;;;;5097143;27;36106;-55
2022/05/03 01:54:47;;;;;;;;;;;8.00;99.80;;;;;;5083355;27;37854;-55
2022/05/03 01:57:21;;;;;;;;;;;7.90;99.80;;;;;;5096149;27;38268;-55
2022/05/03 01:59:50;;;;;;;;;;;7.90;99.90;;;;;;5095734;27;37073;-55
2022/05/03 02:02:25;;;;;;;;;;;7.80;99.90;;;;;;5095896;27;36623;-55
2022/05/03 02:05:01;;;;;;;;;;;7.80;99.90;;;;;;5096259;27;37243;-55
2022/05/03 02:07:38;;;;;;;;;;;7.70;99.90;;;;;;5095812;27;37524;-55
2022/05/03 02:10:08;;;;;;;;;;;7.70;99.90;;;;;;5094668;27;30438;-55
2022/05/03 02:12:35;;;;;;;;;;;7.60;99.90;;;;;;5095372;27;36457;-55
2022/05/03 02:15:03;;;;;;;;;;;7.60;99.90;;;;;;5094142;27;37623;-54
2022/05/03 02:17:37;;;;;;;;;;;7.60;99.90;;;;;;5095404;27;36171;-55
2022/05/03 02:20:13;;;;;;;;;;;7.60;99.90;;;;;;5095020;27;37079;-55
2022/05/03 02:22:48;;;;;;;;;;;7.60;99.90;;;;;;5096134;27;35088;-55
2022/05/03 02:25:20;;;;;;;;;;;7.60;99.90;;;;;;5092219;27;37913;-54
2022/05/03 02:27:48;;;;;;;;;;;7.60;99.90;;;;;;5094248;27;38073;-54
2022/05/03 02:30:17;;;;;;;;;;;7.70;99.90;;;;;;5095831;27;37540;-56
2022/05/03 02:32:51;;;;;;;;;;;7.70;99.90;;;;;;5095890;27;36985;-54
2022/05/03 02:35:20;;;;;;;;;;;7.80;99.90;;;;;;5095390;27;37529;-55
2022/05/03 02:37:48;;;;;;;;;;;7.80;99.90;;;;;;5093708;27;37575;-55
2022/05/03 02:40:18;;;;;;;;;;;7.80;99.90;;;;;;5092742;27;36861;-54
2022/05/03 02:42:46;;;;;;;;;;;7.90;99.90;;;;;;5094345;27;37736;-55
2022/05/03 02:45:14;;;;;;;;;;;8.00;99.90;;;;;;5091367;27;37950;-55
2022/05/03 02:47:42;;;;;;;;;;;8.00;99.90;;;;;;5095726;27;38300;-54
2022/05/03 02:50:13;;;;;;;;;;;8.10;99.90;;;;;;5094747;27;36896;-55
2022/05/03 02:52:48;;;;;;;;;;;8.10;99.90;;;;;;5095327;27;37221;-56
2022/05/03 02:55:20;;;;;;;;;;;8.20;99.90;;;;;;5091302;27;37988;-53
2022/05/03 02:57:52;;;;;;;;;;;8.30;99.90;;;;;;5094003;27;38959;-56
2022/05/03 03:03:11;;;;;;;;;;;8.40;99.90;;;;;;5094631;27;36443;-56
2022/05/03 03:05:42;;;;;;;;;;;8.30;99.90;;;;;;5095489;27;39367;-55
2022/05/03 03:08:11;;;;;;;;;;;8.40;99.90;;;;;;5095264;27;36832;-54
2022/05/03 03:10:44;;;;;;;;;;;8.40;99.90;;;;;;5093632;27;35829;-54
2022/05/03 03:13:14;;;;;;;;;;;8.50;99.90;;;;;;5098484;27;37568;-55
2022/05/03 03:15:41;;;;;;;;;;;8.50;99.90;;;;;;5095604;27;38087;-55
2022/05/03 03:18:12;;;;;;;;;;;8.60;99.90;;;;;;5097088;27;38546;-55
2022/05/03 03:20:43;;;;;;;;;;;8.60;99.90;;;;;;5097435;27;36993;-55
2022/05/03 03:23:14;;;;;;;;;;;8.70;99.90;;;;;;5098128;27;35251;-55
2022/05/03 03:25:42;;;;;;;;;;;8.70;99.90;;;;;;5094596;27;37220;-59
2022/05/03 03:28:09;;;;;;;;;;;8.70;99.90;;;;;;5098223;27;37618;-59
2022/05/03 03:30:37;;;;;;;;;;;8.70;99.90;;;;;;5098877;27;38230;-59
2022/05/03 03:33:05;;;;;;;;;;;8.80;99.90;;;;;;5098093;27;35055;-59
2022/05/03 03:35:32;;;;;;;;;;;8.80;99.90;;;;;;5097353;27;38000;-59
2022/05/03 03:38:01;;;;;;;;;;;8.80;99.90;;;;;;5096721;27;38724;-59
2022/05/03 03:40:28;;;;;;;;;;;8.80;99.90;;;;;;5096794;27;37294;-60
2022/05/03 03:42:55;;;;;;;;;;;8.80;99.90;;;;;;5097656;27;36279;-60
2022/05/03 03:45:22;;;;;;;;;;;8.80;99.90;;;;;;5096931;27;37368;-59
2022/05/03 03:47:49;;;;;;;;;;;8.90;99.90;;;;;;5098161;27;36116;-59
2022/05/03 03:50:16;;;;;;;;;;;8.90;99.90;;;;;;5097856;27;38124;-59
2022/05/03 03:52:46;;;;;;;;;;;8.90;99.90;;;;;;5096924;27;36363;-59
2022/05/03 03:55:15;;;;;;;;;;;9.00;99.90;;;;;;5097007;27;38193;-59
2022/05/03 03:57:42;;;;;;;;;;;9.00;99.90;;;;;;5092609;27;37707;-54
2022/05/03 04:00:10;;;;;;;;;;;9.00;99.90;;;;;;5098548;27;36615;-53
2022/05/03 04:02:37;;;;;;;;;;;9.00;99.90;;;;;;5097973;27;35173;-55
2022/05/03 04:05:08;;;;;;;;;;;9.10;99.90;;;;;;5098337;27;37659;-54
2022/05/03 04:07:35;;;;;;;;;;;9.10;99.90;;;;;;5097136;27;38491;-55
2022/05/03 04:10:02;;;;;;;;;;;9.10;99.90;;;;;;5096962;27;37604;-53
2022/05/03 04:12:31;;;;;;;;;;;9.10;99.90;;;;;;5097298;27;38925;-55
2022/05/03 04:14:58;;;;;;;;;;;9.20;99.90;;;;;;5096154;27;37530;-54
2022/05/03 04:17:25;;;;;;;;;;;9.20;99.90;;;;;;5097520;27;36256;-55
2022/05/03 04:19:52;;;;;;;;;;;9.20;99.90;;;;;;5096034;27;36807;-54
2022/05/03 04:22:23;;;;;;;;;;;9.20;99.90;;;;;;5096385;27;37336;-54
2022/05/03 04:24:50;;;;;;;;;;;9.30;99.90;;;;;;5095477;27;36468;-54
2022/05/03 04:27:17;;;;;;;;;;;9.30;99.90;;;;;;5093481;27;37850;-54
2022/05/03 04:29:45;;;;;;;;;;;9.30;99.90;;;;;;5094755;27;36024;-55
2022/05/03 04:32:12;;;;;;;;;;;9.40;99.90;;;;;;5095854;27;37683;-59
2022/05/03 04:34:39;;;;;;;;;;;9.40;99.90;;;;;;5096597;27;39012;-59
2022/05/03 04:37:06;;;;;;;;;;;9.40;99.90;;;;;;5095948;27;35904;-59
2022/05/03 04:39:34;;;;;;;;;;;9.40;99.90;;;;;;5091846;27;36720;-59
2022/05/03 04:42:01;;;;;;;;;;;9.50;99.90;;;;;;5095369;27;37251;-59
2022/05/03 04:44:28;;;;;;;;;;;9.50;99.90;;;;;;5096320;27;37458;-59
2022/05/03 04:46:59;;;;;;;;;;;9.50;99.90;;;;;;5094296;27;37617;-59
2022/05/03 04:49:26;;;;;;;;;;;9.50;99.90;;;;;;5097040;27;36224;-59
2022/05/03 04:51:54;;;;;;;;;;;9.60;99.90;;;;;;5096075;27;38930;-59
2022/05/03 04:54:24;;;;;;;;;;;9.60;99.90;;;;;;5094372;27;38865;-59
2022/05/03 04:56:52;;;;;;;;;;;9.70;99.90;;;;;;5093495;27;37816;-59
2022/05/03 04:59:21;;;;;;;;;;;9.60;99.90;;;;;;5094950;27;35648;-59
2022/05/03 05:01:51;;;;;;;;;;;9.50;99.90;;;;;;5094683;27;35165;-59
2022/05/03 05:04:19;;;;;;;;;;;9.80;99.90;;;;;;5096439;27;37882;-59
2022/05/03 05:06:46;;;;;;;;;;;9.70;99.90;;;;;;5096344;27;38547;-59
2022/05/03 05:09:13;;;;;;;;;;;9.70;99.90;;;;;;5094978;27;35531;-59
2022/05/03 05:11:40;;;;;;;;;;;9.80;99.90;;;;;;5095086;27;38075;-59
2022/05/03 05:14:07;;;;;;;;;;;9.80;99.90;;;;;;5093715;27;36404;-59
2022/05/03 05:16:34;;;;;;;;;;;9.90;99.90;;;;;;5095380;27;37218;-59
2022/05/03 05:19:01;;;;;;;;;;;9.90;99.90;;;;;;5094718;27;35589;-58
2022/05/03 05:21:30;;;;;;;;;;;9.90;99.90;;;;;;5094790;27;36254;-59
2022/05/03 05:23:57;;;;;;;;;;;9.90;99.90;;;;;;5084820;27;37510;-59
2022/05/03 05:26:24;;;;;;;;;;;10.00;99.90;;;;;;5087242;27;36120;-59
2022/05/03 05:28:53;;;;;;;;;;;10.00;99.90;;;;;;5090285;27;36926;-58
2022/05/03 05:31:20;;;;;;;;;;;10.00;99.90;;;;;;5091246;27;36197;-59
2022/05/03 05:33:47;;;;;;;;;;;10.00;99.90;;;;;;5089547;27;39027;-58
2022/05/03 05:36:14;;;;;;;;;;;10.00;99.90;;;;;;5092613;27;37759;-59
2022/05/03 05:38:42;;;;;;;;;;;10.00;99.90;;;;;;5094871;27;37823;-58
2022/05/03 05:41:13;;;;;;;;;;;10.10;99.90;;;;;;5095038;27;36525;-58
2022/05/03 05:43:41;;;;;;;;;;;10.10;99.90;;;;;;5095654;27;39632;-58
2022/05/03 05:46:11;;;;;;;;;;;10.10;99.90;;;;;;5096093;27;37230;-58
2022/05/03 05:48:38;;;;;;;;;;;10.10;99.90;;;;;;5095143;27;38108;-59
2022/05/03 05:51:05;;;;;;;;;;;10.10;99.90;;;;;;5095398;27;36154;-59
2022/05/03 05:53:32;;;;;;;;;;;10.10;99.90;;;;;;5095517;27;38395;-58
2022/05/03 05:56:00;;;;;;;;;;;10.20;99.90;;;;;;5094166;27;37027;-59
2022/05/03 05:58:27;;;;;;;;;;;10.20;99.90;;;;;;5096613;27;36292;-58
2022/05/03 06:00:56;;;;;;;;;;;10.20;99.90;;;;;;5095614;27;36904;-59
2022/05/03 06:03:23;;;;;;;;;;;10.30;99.90;;;;;;5096701;27;39413;-59
2022/05/03 06:05:51;;;;;;;;;;;10.30;99.90;;;;;;5095007;27;36318;-58
2022/05/03 06:08:18;;;;;;;;;;;10.30;99.90;;;;;;5094192;27;37465;-58
2022/05/03 06:10:46;;;;;;;;;;;10.30;99.90;;;;;;5092203;27;36955;-58
2022/05/03 06:13:15;;;;;;;;;;;10.30;99.90;;;;;;5095802;27;36779;-57
2022/05/03 06:15:42;;;;;;;;;;;10.30;99.90;;;;;;5094500;27;37567;-58
2022/05/03 06:18:10;;;;;;;;;;;10.40;99.90;;;;;;5094705;27;36825;-58
2022/05/03 06:20:37;;;;;;;;;;;10.30;99.90;;;;;;5093422;27;36321;-58
2022/05/03 06:23:04;;;;;;;;;;;10.40;99.90;;;;;;5093148;27;36401;-59
2022/05/03 06:25:31;;;;;;;;;;;10.40;99.90;;;;;;5092540;27;37407;-58
2022/05/03 06:27:58;;;;;;;;;;;10.30;99.90;;;;;;5093064;27;36757;-58
2022/05/03 06:30:27;;;;;;;;;;;10.20;99.90;;;;;;5094832;27;40396;-59
2022/05/03 06:32:55;;;;;;;;;;;10.20;99.90;;;;;;5091934;27;38085;-59
2022/05/03 06:35:22;;;;;;;;;;;10.10;99.90;;;;;;5093292;27;38649;-59
2022/05/03 06:37:49;;;;;;;;;;;10.10;99.90;;;;;;5093315;27;35732;-53
2022/05/03 06:40:16;;;;;;;;;;;10.10;99.90;;;;;;5090800;27;35929;-54
2022/05/03 06:42:43;;;;;;;;;;;10.10;99.90;;;;;;5091812;27;37235;-59
2022/05/03 06:45:11;;;;;;;;;;;10.10;99.90;;;;;;5092722;27;38347;-54
2022/05/03 06:47:40;;;;;;;;;;;10.00;99.90;;;;;;5097542;27;37400;-55
2022/05/03 06:50:08;;;;;;;;;;;10.00;99.90;;;;;;5098240;27;35937;-54
2022/05/03 06:52:35;;;;;;;;;;;10.00;99.90;;;;;;5099419;27;39099;-52
2022/05/03 06:55:03;;;;;;;;;;;10.10;99.90;;;;;;5096026;27;35907;-54
2022/05/03 06:57:30;;;;;;;;;;;10.10;99.90;;;;;;5095705;27;36340;-53
2022/05/03 07:00:00;;;;;;;;;;;10.10;99.90;;;;;;5098537;27;36840;-55
2022/05/03 07:02:29;;;;;;;;;;;10.20;99.90;;;;;;5097890;27;38920;-52
2022/05/03 07:04:57;;;;;;;;;;;10.20;99.90;;;;;;5099433;27;37437;-53
2022/05/03 07:07:25;;;;;;;;;;;10.30;99.90;;;;;;5098420;27;36675;-55
2022/05/03 07:09:54;;;;;;;;;;;10.30;99.90;;;;;;5096375;27;36454;-55
2022/05/03 07:12:21;;;;;;;;;;;10.20;99.90;;;;;;5099242;27;38547;-55
2022/05/03 07:14:49;;;;;;;;;;;10.30;99.90;;;;;;5096990;27;38464;-55
2022/05/03 07:22:51;;;;;;;;;;;10.30;99.90;;;;;;5099339;27;39215;-54
2022/05/03 07:25:18;;;;;;;;;;;10.40;99.90;;;;;;5098044;27;37948;-55
2022/05/03 07:27:48;;;;;;;;;;;10.40;99.90;;;;;;5096691;27;37072;-55
2022/05/03 07:30:15;;;;;;;;;;;10.40;99.90;;;;;;5097637;27;36184;-54
2022/05/03 07:32:42;;;;;;;;;;;10.40;99.90;;;;;;5096038;27;37569;-55
2022/05/03 07:35:11;;;;;;;;;;;10.40;99.90;;;;;;5096057;27;35772;-55
2022/05/03 07:37:38;;;;;;;;;;;10.40;99.90;;;;;;5099257;27;35455;-59
2022/05/03 07:40:06;;;;;;;;;;;10.40;99.90;;;;;;5098576;27;38681;-59
2022/05/03 07:42:34;;;;;;;;;;;10.50;99.90;;;;;;5099037;27;37833;-59
2022/05/03 07:45:01;;;;;;;;;;;10.50;99.90;;;;;;5096226;27;36378;-59
2022/05/03 07:47:28;;;;;;;;;;;10.50;99.90;;;;;;5097712;27;37793;-59
2022/05/03 07:49:55;;;;;;;;;;;10.60;99.90;;;;;;5091189;27;36417;-59
2022/05/03 07:52:24;;;;;;;;;;;10.60;99.90;;;;;;5096322;27;37402;-59
2022/05/03 07:54:51;;;;;;;;;;;10.60;99.90;;;;;;5097368;27;38429;-59
2022/05/03 07:57:18;;;;;;;;;;;10.60;99.90;;;;;;5095231;27;36934;-59
2022/05/03 07:59:48;;;;;;;;;;;10.70;99.90;;;;;;5095582;27;35014;-59
2022/05/03 08:02:16;;;;;;;;;;;10.70;99.90;;;;;;5094907;27;37998;-59
2022/05/03 08:04:43;;;;;;;;;;;10.70;99.90;;;;;;5096375;27;36338;-59
2022/05/03 08:07:10;;;;;;;;;;;10.80;99.90;;;;;;5094817;27;37998;-59
2022/05/03 08:09:39;;;;;;;;;;;10.80;99.90;;;;;;5096442;27;36928;-59
2022/05/03 08:12:06;;;;;;;;;;;10.90;99.90;;;;;;5095374;27;37956;-59
2022/05/03 08:14:33;;;;;;;;;;;10.90;99.90;;;;;;5097851;27;36677;-59
2022/05/03 08:17:01;;;;;;;;;;;11.00;99.90;;;;;;5095736;27;39239;-59
2022/05/03 08:19:28;;;;;;;;;;;11.00;99.90;;;;;;5096862;27;37767;-59
2022/05/03 08:21:56;;;;;;;;;;;10.90;99.90;;;;;;5099029;27;37863;-60
2022/05/03 08:24:25;;;;;;;;;;;10.90;99.90;;;;;;5098063;27;37229;-59
2022/05/03 08:26:54;;;;;;;;;;;10.90;99.90;;;;;;5096931;27;36964;-59
2022/05/03 08:29:21;;;;;;;;;;;10.90;99.90;;;;;;5097229;27;35092;-60
2022/05/03 08:31:48;;;;;;;;;;;11.00;99.90;;;;;;5097105;27;37664;-60
2022/05/03 08:34:15;;;;;;;;;;;11.00;99.90;;;;;;5097799;27;37792;-59
2022/05/03 08:42:01;;;;;;;;;;;11.00;99.90;;;;;;5096998;27;37843;-59
2022/05/03 08:42:16;;;;;;;;;;;11.00;99.90;;;;;;5097437;27;38763;-59
2022/05/03 08:44:43;;;;;;;;;;;11.00;99.90;;;;;;5096885;27;36315;-59
2022/05/03 08:47:12;;;;;;;;;;;11.00;99.90;;;;;;5097046;27;36738;-59
2022/05/03 08:49:42;;;;;;;;;;;11.00;99.90;;;;;;5097332;27;35895;-59
2022/05/03 08:52:10;;;;;;;;;;;11.10;99.90;;;;;;5096270;27;37534;-59
2022/05/03 08:54:38;;;;;;;;;;;11.00;99.90;;;;;;5095961;27;37203;-59
2022/05/03 08:57:06;;;;;;;;;;;11.00;99.90;;;;;;5095577;27;36328;-60
2022/05/03 08:59:36;;;;;;;;;;;11.00;99.80;;;;;;5094158;27;36506;-59
2022/05/03 09:02:06;;;;;;;;;;;11.10;99.90;;;;;;5094689;27;38353;-59
2022/05/03 09:04:33;;;;;;;;;;;11.10;99.60;;;;;;5096756;27;37669;-59
2022/05/03 09:07:16;;;;;;;;;;;11.20;99.50;;;;;;5096242;27;36842;-59
2022/05/03 09:09:43;;;;;;;;;;;11.20;98.80;;;;;;5094673;27;35230;-59
2022/05/03 09:12:21;;;;;;;;;;;11.20;98.50;;;;;;5095108;27;37574;-59
2022/05/03 09:14:50;;;;;;;;;;;11.20;98.30;;;;;;5095496;27;36882;-59
2022/05/03 09:17:33;;;;;;;;;;;11.30;98.00;;;;;;5094102;27;36851;-60
2022/05/03 09:23:46;;;;;;;;;;;11.20;97.80;;;;;;5097382;27;36406;-59
2022/05/03 09:25:35;;;;;;;;;;;11.30;97.20;;;;;;5095348;27;37813;-59
2022/05/03 09:28:05;;;;;;;;;;;11.30;96.80;;;;;;5096393;27;37794;-60
2022/05/03 09:30:34;;;;;;;;;;;11.40;97.00;;;;;;5095193;27;35377;-59
2022/05/03 09:33:01;;;;;;;;;;;11.40;96.70;;;;;;5096723;27;38959;-59
2022/05/03 09:35:31;;;;;;;;;;;11.50;96.30;;;;;;5094358;27;37550;-59
2022/05/03 09:37:59;;;;;;;;;;;11.60;96.80;;;;;;5094099;27;39224;-59
2022/05/03 09:40:26;;;;;;;;;;;11.60;95.90;;;;;;5095816;27;36286;-52
2022/05/03 09:42:54;;;;;;;;;;;11.60;95.40;;;;;;5095022;27;40074;-54
2022/05/03 09:45:22;;;;;;;;;;;11.60;95.00;;;;;;5093246;27;38040;-54
2022/05/03 09:47:52;;;;;;;;;;;11.60;94.80;;;;;;5094549;27;37016;-54
2022/05/03 09:50:26;;;;;;;;;;;11.70;95.10;;;;;;5095754;27;36088;-54
2022/05/03 09:52:53;;;;;;;;;;;11.80;95.20;;;;;;5094164;27;37244;-54
2022/05/03 09:55:27;;;;;;;;;;;11.90;94.90;;;;;;5094711;27;37496;-54
2022/05/03 09:57:54;;;;;;;;;;;12.00;95.10;;;;;;5094432;27;36523;-55
2022/05/03 10:00:21;;;;;;;;;;;12.10;94.40;;;;;;5095735;27;37700;-53
2022/05/03 10:02:49;;;;;;;;;;;12.10;92.50;;;;;;5097033;27;38770;-55
2022/05/03 10:05:20;;;;;;;;;;;12.20;92.50;;;;;;5094549;27;37758;-54
2022/05/03 10:07:47;;;;;;;;;;;12.20;92.60;;;;;;5095344;27;36718;-53
2022/05/03 10:10:15;;;;;;;;;;;12.30;92.00;;;;;;5093523;27;37730;-54
2022/05/03 10:12:43;;;;;;;;;;;12.40;92.30;;;;;;5095143;27;39322;-54
2022/05/03 10:15:11;;;;;;;;;;;12.40;92.30;;;;;;5094272;27;37961;-54
2022/05/03 10:20:40;;;;;;;;;;;12.50;90.80;;;;;;5093147;27;36815;-54
2022/05/03 10:23:18;;;;;;;;;;;12.60;91.60;;;;;;5091951;27;39275;-54
2022/05/03 10:25:52;;;;;;;;;;;12.50;91.40;;;;;;5093999;27;38359;-53
2022/05/03 10:28:19;;;;;;;;;;;12.60;89.80;;;;;;5094049;27;37861;-54
2022/05/03 10:31:05;;;;;;;;;;;12.80;91.30;;;;;;5092701;27;37236;-53
2022/05/03 10:33:42;;;;;;;;;;;12.80;90.30;;;;;;5093630;27;37600;-52
2022/05/03 10:36:28;;;;;;;;;;;12.80;89.90;;;;;;5095290;27;37631;-54
2022/05/03 10:39:03;;;;;;;;;;;12.80;89.70;;;;;;5093259;27;36361;-54
2022/05/03 10:41:30;;;;;;;;;;;12.80;90.20;;;;;;5095507;27;35677;-53
2022/05/03 10:43:57;;;;;;;;;;;12.70;88.50;;;;;;5093593;27;37638;-54
2022/05/03 10:46:24;;;;;;;;;;;12.70;88.20;;;;;;5091527;27;37540;-53
2022/05/03 10:49:04;;;;;;;;;;;12.70;88.40;;;;;;5093922;27;36546;-53
2022/05/03 10:51:31;;;;;;;;;;;12.70;90.00;;;;;;5092960;27;37016;-55
2022/05/03 10:54:00;;;;;;;;;;;12.80;88.80;;;;;;5094511;27;38435;-55
2022/05/03 10:56:27;;;;;;;;;;;12.80;86.20;;;;;;5093611;27;37600;-54
2022/05/03 10:59:05;;;;;;;;;;;12.80;87.10;;;;;;5094776;27;36897;-55
2022/05/03 11:01:33;;;;;;;;;;;12.80;86.10;;;;;;5093955;27;36208;-54
2022/05/03 11:04:12;;;;;;;;;;;12.80;86.20;;;;;;5094994;27;37780;-54
2022/05/03 11:06:43;;;;;;;;;;;12.80;88.70;;;;;;5094060;27;38474;-55
2022/05/03 11:09:18;;;;;;;;;;;12.80;86.90;;;;;;5094825;27;38076;-54
2022/05/03 11:12:03;;;;;;;;;;;12.80;87.80;;;;;;5093910;27;35252;-62
2022/05/03 11:14:49;;;;;;;;;;;13.00;87.70;;;;;;5096455;27;37638;-59
2022/05/03 11:17:17;;;;;;;;;;;13.10;83.90;;;;;;5096466;27;38004;-60
2022/05/03 11:20:01;;;;;;;;;;;13.20;86.10;;;;;;5094498;27;35637;-60
2022/05/03 11:22:29;;;;;;;;;;;13.20;84.20;;;;;;5095693;27;36189;-60
2022/05/03 11:24:59;;;;;;;;;;;13.30;83.70;;;;;;5092593;27;38320;-59
2022/05/03 11:27:26;;;;;;;;;;;13.50;83.50;;;;;;5095276;27;37482;-59
2022/05/03 11:29:57;;;;;;;;;;;13.50;80.40;;;;;;5092995;27;36148;-59
2022/05/03 11:32:28;;;;;;;;;;;13.40;79.10;;;;;;5095695;27;34991;-60
2022/05/03 11:35:09;;;;;;;;;;;13.30;80.70;;;;;;5096804;27;36590;-59
2022/05/03 11:37:37;;;;;;;;;;;13.30;86.10;;;;;;5095614;27;36152;-59
2022/05/03 11:40:09;;;;;;;;;;;13.40;81.00;;;;;;5096975;27;36490;-59
2022/05/03 11:42:42;;;;;;;;;;;13.50;81.50;;;;;;5097743;27;37011;-59
2022/05/03 11:45:10;;;;;;;;;;;13.60;83.90;;;;;;5097989;27;37921;-59
2022/05/03 11:47:41;;;;;;;;;;;13.60;78.90;;;;;;5096753;27;37455;-59
2022/05/03 11:50:09;;;;;;;;;;;13.60;79.70;;;;;;5097375;27;35074;-59
2022/05/03 11:58:07;;;;;;;;;;;13.60;84.10;;;;;;5098391;27;39388;-59
2022/05/03 12:00:47;;;;;;;;;;;13.70;80.50;;;;;;5096984;27;38457;-59
2022/05/03 12:03:14;;;;;;;;;;;13.60;77.40;;;;;;5097188;27;37570;-60
2022/05/03 12:05:55;;;;;;;;;;;13.50;80.80;;;;;;5098570;27;36310;-59
2022/05/03 12:08:23;;;;;;;;;;;13.40;80.10;;;;;;5098237;27;38040;-59
2022/05/03 12:10:52;;;;;;;;;;;13.20;79.40;;;;;;5098741;27;36363;-59
2022/05/03 12:13:26;;;;;;;;;;;13.10;80.50;;;;;;5097952;27;36844;-59
2022/05/03 12:16:06;;;;;;;;;;;13.00;80.60;;;;;;5094764;27;37346;-58
2022/05/03 12:18:33;;;;;;;;;;;13.00;82.60;;;;;;5097615;27;38082;-59
2022/05/03 12:21:01;;;;;;;;;;;13.00;81.70;;;;;;5095635;27;36685;-59
2022/05/03 12:23:37;;;;;;;;;;;13.00;83.00;;;;;;5094682;27;37399;-59
2022/05/03 12:26:16;;;;;;;;;;;13.10;81.90;;;;;;5093363;27;37899;-59
2022/05/03 12:28:43;;;;;;;;;;;13.20;82.10;;;;;;5095966;27;38852;-59
2022/05/03 12:31:12;;;;;;;;;;;13.30;81.10;;;;;;5095653;27;36914;-59
2022/05/03 12:33:40;;;;;;;;;;;13.20;79.40;;;;;;5095917;27;36275;-60
2022/05/03 12:36:08;;;;;;;;;;;13.10;78.90;;;;;;5097530;27;38484;-59
2022/05/03 12:38:46;;;;;;;;;;;13.10;80.80;;;;;;5095353;27;37632;-59
2022/05/03 12:41:23;;;;;;;;;;;13.00;78.50;;;;;;5094349;27;36681;-60
2022/05/03 12:44:00;;;;;;;;;;;12.80;82.60;;;;;;5096530;27;36650;-59
2022/05/03 12:46:27;;;;;;;;;;;12.70;78.80;;;;;;5094562;27;39547;-59
2022/05/03 12:48:54;;;;;;;;;;;12.70;82.80;;;;;;5094785;27;37607;-59
2022/05/03 12:51:21;;;;;;;;;;;12.70;81.90;;;;;;5095517;27;37118;-59
2022/05/03 12:53:49;;;;;;;;;;;12.90;84.50;;;;;;5094787;27;36521;-59
2022/05/03 12:59:01;;;;;;;;;;;13.10;82.00;;;;;;5095202;27;39547;-54
2022/05/03 13:01:28;;;;;;;;;;;13.20;83.20;;;;;;5094117;27;36954;-54
2022/05/03 13:03:56;;;;;;;;;;;13.30;82.80;;;;;;5093615;27;37071;-54
2022/05/03 13:06:23;;;;;;;;;;;13.50;78.40;;;;;;5091136;27;37716;-54
2022/05/03 13:08:50;;;;;;;;;;;13.60;82.00;;;;;;5092827;27;39001;-54
2022/05/03 13:11:17;;;;;;;;;;;13.60;81.60;;;;;;5092819;27;35493;-52
2022/05/03 13:13:44;;;;;;;;;;;13.60;77.60;;;;;;5094401;27;36882;-53
2022/05/03 13:16:13;;;;;;;;;;;13.60;78.30;;;;;;5094460;27;36358;-53
2022/05/03 13:18:40;;;;;;;;;;;13.50;78.80;;;;;;5094243;27;36200;-53
2022/05/03 13:21:07;;;;;;;;;;;13.50;76.80;;;;;;5093094;27;36696;-53
2022/05/03 13:23:34;;;;;;;;;;;13.40;76.10;;;;;;5095277;27;36407;-54
2022/05/03 13:26:02;;;;;;;;;;;13.40;76.50;;;;;;5091584;27;37553;-54
2022/05/03 13:28:29;;;;;;;;;;;13.30;78.20;;;;;;5094485;27;37721;-54
2022/05/03 13:30:56;;;;;;;;;;;13.20;81.10;;;;;;5092973;27;37238;-54
2022/05/03 13:33:25;;;;;;;;;;;13.20;78.80;;;;;;5095142;27;37428;-53
2022/05/03 13:41:21;;;;;;;;;;;13.30;78.90;;;;;;5093745;27;36975;-54
2022/05/03 13:43:48;;;;;;;;;;;13.30;79.60;;;;;;5094568;27;36579;-53
2022/05/03 13:46:16;;;;;;;;;;;13.40;80.20;;;;;;5094306;27;38459;-54
2022/05/03 13:48:45;;;;;;;;;;;13.30;76.80;;;;;;5093909;27;37292;-54
2022/05/03 13:51:12;;;;;;;;;;;13.20;77.70;;;;;;5093627;27;36673;-54
2022/05/03 13:53:39;;;;;;;;;;;13.20;77.90;;;;;;5093824;27;37747;-54
2022/05/03 13:56:06;;;;;;;;;;;13.20;78.30;;;;;;5094086;27;37726;-54
2022/05/03 13:58:33;;;;;;;;;;;13.10;78.50;;;;;;5093717;27;37744;-54
2022/05/03 14:01:00;;;;;;;;;;;13.00;77.60;;;;;;5093650;27;36899;-52
2022/05/03 14:03:27;;;;;;;;;;;12.90;77.80;;;;;;5092806;27;37522;-52
2022/05/03 14:05:56;;;;;;;;;;;12.80;78.50;;;;;;5091520;27;38712;-54
2022/05/03 14:08:23;;;;;;;;;;;12.80;78.30;;;;;;5091827;27;39604;-53
2022/05/03 14:10:50;;;;;;;;;;;12.80;79.30;;;;;;5094453;27;37107;-54
2022/05/03 14:13:20;;;;;;;;;;;12.90;80.60;;;;;;5094017;27;36387;-54
2022/05/03 14:15:47;;;;;;;;;;;13.00;80.00;;;;;;5091833;27;38614;-54
2022/05/03 14:18:14;;;;;;;;;;;13.00;79.40;;;;;;5093278;27;37046;-55
2022/05/03 14:20:41;;;;;;;;;;;13.00;80.80;;;;;;5089048;27;40828;-55
2022/05/03 14:23:10;;;;;;;;;;;13.00;78.60;;;;;;5093260;27;37984;-54
2022/05/03 14:25:37;;;;;;;;;;;13.10;79.00;;;;;;5093082;27;38700;-54
2022/05/03 14:28:04;;;;;;;;;;;13.10;78.90;;;;;;5094409;27;39096;-55
2022/05/03 14:30:31;;;;;;;;;;;13.10;76.50;;;;;;5093091;27;39322;-54
2022/05/03 14:33:02;;;;;;;;;;;13.10;78.90;;;;;;5092428;27;36272;-54
2022/05/03 14:35:29;;;;;;;;;;;13.00;78.20;;;;;;5091505;27;39373;-55
2022/05/03 14:37:56;;;;;;;;;;;12.90;76.60;;;;;;5093247;27;38298;-55
2022/05/03 14:40:25;;;;;;;;;;;12.80;78.00;;;;;;5092608;27;36856;-54
2022/05/03 14:42:52;;;;;;;;;;;12.60;77.60;;;;;;5092976;27;35155;-55
2022/05/03 14:45:20;;;;;;;;;;;12.50;79.20;;;;;;5091107;27;38864;-55
2022/05/03 14:47:47;;;;;;;;;;;12.40;77.40;;;;;;5093893;27;37806;-55
2022/05/03 14:50:14;;;;;;;;;;;12.40;77.20;;;;;;5090937;27;36729;-55
2022/05/03 14:52:41;;;;;;;;;;;12.40;78.30;;;;;;5090838;27;37313;-55
2022/05/03 14:55:11;;;;;;;;;;;12.40;78.90;;;;;;5092180;27;38558;-55
2022/05/03 15:03:09;;;;;;;;;;;12.50;78.60;;;;;;5093972;27;37498;-55
2022/05/03 15:05:38;;;;;;;;;;;12.40;77.30;;;;;;5089414;27;38232;-55
2022/05/03 15:08:07;;;;;;;;;;;12.40;78.20;;;;;;5095163;27;38534;-55
2022/05/03 15:10:34;;;;;;;;;;;12.50;76.40;;;;;;5096059;27;38562;-55
2022/05/03 15:13:12;;;;;;;;;;;12.50;78.80;;;;;;5097760;27;35305;-55
2022/05/03 15:15:40;;;;;;;;;;;12.50;77.90;;;;;;5102351;27;37685;-54
2022/05/03 15:18:08;;;;;;;;;;;12.60;79.30;;;;;;5095702;27;38170;-55